sensor_id;sensor_type;location;lat;lon;timestamp;P1;durP1;ratioP1;P2;durP2;ratioP2
82948;SDS011;72736;50.236;18.876;2024-02-04T00:51:00;18.20;;;7.60;;
82948;SDS011;72736;50.236;18.876;2024-02-04T01:01:12;14.20;;;7.10;;
82948;SDS011;72736;50.236;18.876;2024-02-04T01:06:18;14.20;;;7.30;;
82948;SDS011;72736;50.236;18.876;2024-02-04T01:11:24;14.50;;;6.90;;
82948;SDS011;72736;50.236;18.876;2024-02-04T01:16:30;13.70;;;5.90;;
82948;SDS011;72736;50.236;18.876;2024-02-04T01:21:36;11.20;;;5.70;;
82948;SDS011;72736;50.236;18.876;2024-02-04T01:26:42;10.10;;;5.20;;
82948;SDS011;72736;50.236;18.876;2024-02-04T01:31:47;11.10;;;4.40;;
82948;SDS011;72736;50.236;18.876;2024-02-04T01:36:53;8.90;;;4.10;;
82948;SDS011;72736;50.236;18.876;2024-02-04T01:41:59;8.50;;;3.70;;
82948;SDS011;72736;50.236;18.876;2024-02-04T01:47:05;7.00;;;3.20;;
82948;SDS011;72736;50.236;18.876;2024-02-04T01:52:12;7.40;;;3.20;;
82948;SDS011;72736;50.236;18.876;2024-02-04T01:57:19;4.90;;;2.70;;
82948;SDS011;72736;50.236;18.876;2024-02-04T02:02:25;6.30;;;3.00;;
82948;SDS011;72736;50.236;18.876;2024-02-04T02:12:37;7.10;;;4.00;;
82948;SDS011;72736;50.236;18.876;2024-02-04T02:17:48;45.80;;;15.10;;
82948;SDS011;72736;50.236;18.876;2024-02-04T02:23:03;10.00;;;5.50;;
82948;SDS011;72736;50.236;18.876;2024-02-04T02:28:14;11.80;;;7.80;;
82948;SDS011;72736;50.236;18.876;2024-02-04T02:33:19;4.20;;;1.80;;
82948;SDS011;72736;50.236;18.876;2024-02-04T02:38:26;4.60;;;2.20;;
82948;SDS011;72736;50.236;18.876;2024-02-04T02:43:37;7.80;;;4.90;;
82948;SDS011;72736;50.236;18.876;2024-02-04T02:48:47;7.10;;;5.00;;
82948;SDS011;72736;50.236;18.876;2024-02-04T02:53:53;6.30;;;3.90;;
82948;SDS011;72736;50.236;18.876;2024-02-04T02:58:59;2.60;;;1.40;;
82948;SDS011;72736;50.236;18.876;2024-02-04T03:04:12;3.90;;;1.80;;
82948;SDS011;72736;50.236;18.876;2024-02-04T03:09:18;2.50;;;1.10;;
82948;SDS011;72736;50.236;18.876;2024-02-04T03:14:23;3.10;;;1.40;;
82948;SDS011;72736;50.236;18.876;2024-02-04T03:19:29;3.60;;;1.20;;
82948;SDS011;72736;50.236;18.876;2024-02-04T03:24:35;2.50;;;1.20;;
82948;SDS011;72736;50.236;18.876;2024-02-04T03:29:40;2.90;;;1.30;;
82948;SDS011;72736;50.236;18.876;2024-02-04T03:34:46;2.90;;;1.30;;
82948;SDS011;72736;50.236;18.876;2024-02-04T03:39:52;3.60;;;1.60;;
82948;SDS011;72736;50.236;18.876;2024-02-04T03:44:57;3.30;;;1.60;;
82948;SDS011;72736;50.236;18.876;2024-02-04T03:50:04;3.60;;;1.30;;
82948;SDS011;72736;50.236;18.876;2024-02-04T03:55:11;4.40;;;1.60;;
82948;SDS011;72736;50.236;18.876;2024-02-04T04:00:17;3.60;;;1.30;;
82948;SDS011;72736;50.236;18.876;2024-02-04T04:05:23;3.30;;;1.70;;
82948;SDS011;72736;50.236;18.876;2024-02-04T04:10:29;3.90;;;1.80;;
82948;SDS011;72736;50.236;18.876;2024-02-04T04:15:35;3.50;;;1.90;;
82948;SDS011;72736;50.236;18.876;2024-02-04T04:20:41;8.10;;;2.80;;
82948;SDS011;72736;50.236;18.876;2024-02-04T04:25:47;6.20;;;3.50;;
82948;SDS011;72736;50.236;18.876;2024-02-04T04:30:53;6.00;;;3.60;;
82948;SDS011;72736;50.236;18.876;2024-02-04T04:35:59;6.30;;;3.60;;
82948;SDS011;72736;50.236;18.876;2024-02-04T04:41:04;4.50;;;3.10;;
82948;SDS011;72736;50.236;18.876;2024-02-04T04:51:15;4.60;;;2.40;;
82948;SDS011;72736;50.236;18.876;2024-02-04T04:56:20;4.00;;;2.40;;
82948;SDS011;72736;50.236;18.876;2024-02-04T05:01:26;5.80;;;2.70;;
82948;SDS011;72736;50.236;18.876;2024-02-04T05:06:32;3.80;;;1.80;;
82948;SDS011;72736;50.236;18.876;2024-02-04T05:11:38;3.40;;;1.80;;
82948;SDS011;72736;50.236;18.876;2024-02-04T05:16:44;3.00;;;1.70;;
82948;SDS011;72736;50.236;18.876;2024-02-04T05:21:50;4.00;;;2.30;;
82948;SDS011;72736;50.236;18.876;2024-02-04T05:26:55;6.90;;;4.50;;
82948;SDS011;72736;50.236;18.876;2024-02-04T05:32:01;6.40;;;3.30;;
82948;SDS011;72736;50.236;18.876;2024-02-04T05:37:09;5.10;;;2.70;;
82948;SDS011;72736;50.236;18.876;2024-02-04T05:42:15;6.50;;;3.30;;
82948;SDS011;72736;50.236;18.876;2024-02-04T05:47:21;6.20;;;2.70;;
82948;SDS011;72736;50.236;18.876;2024-02-04T05:52:26;3.90;;;1.50;;
82948;SDS011;72736;50.236;18.876;2024-02-04T05:57:32;4.90;;;1.90;;
82948;SDS011;72736;50.236;18.876;2024-02-04T06:02:38;4.00;;;1.60;;
82948;SDS011;72736;50.236;18.876;2024-02-04T06:07:46;3.20;;;1.50;;
82948;SDS011;72736;50.236;18.876;2024-02-04T06:12:51;4.40;;;1.50;;
82948;SDS011;72736;50.236;18.876;2024-02-04T06:17:57;2.80;;;1.10;;
82948;SDS011;72736;50.236;18.876;2024-02-04T06:23:03;5.50;;;1.60;;
82948;SDS011;72736;50.236;18.876;2024-02-04T06:28:08;5.60;;;1.40;;
82948;SDS011;72736;50.236;18.876;2024-02-04T06:33:14;4.20;;;1.40;;
82948;SDS011;72736;50.236;18.876;2024-02-04T06:38:20;4.60;;;1.70;;
82948;SDS011;72736;50.236;18.876;2024-02-04T06:43:26;5.30;;;1.60;;
82948;SDS011;72736;50.236;18.876;2024-02-04T06:48:33;5.70;;;2.10;;
82948;SDS011;72736;50.236;18.876;2024-02-04T06:53:39;5.10;;;1.80;;
82948;SDS011;72736;50.236;18.876;2024-02-04T06:58:44;4.70;;;1.90;;
82948;SDS011;72736;50.236;18.876;2024-02-04T07:03:50;5.90;;;2.40;;
82948;SDS011;72736;50.236;18.876;2024-02-04T07:08:56;4.30;;;1.70;;
82948;SDS011;72736;50.236;18.876;2024-02-04T07:14:02;8.50;;;2.10;;
82948;SDS011;72736;50.236;18.876;2024-02-04T07:19:09;7.10;;;1.80;;
82948;SDS011;72736;50.236;18.876;2024-02-04T07:24:14;6.30;;;3.10;;
82948;SDS011;72736;50.236;18.876;2024-02-04T07:29:21;8.40;;;3.20;;
82948;SDS011;72736;50.236;18.876;2024-02-04T07:34:27;5.20;;;2.90;;
82948;SDS011;72736;50.236;18.876;2024-02-04T07:39:33;8.60;;;3.30;;
82948;SDS011;72736;50.236;18.876;2024-02-04T07:44:41;5.80;;;2.20;;
82948;SDS011;72736;50.236;18.876;2024-02-04T07:49:47;5.70;;;1.40;;
82948;SDS011;72736;50.236;18.876;2024-02-04T07:54:53;5.20;;;1.70;;
82948;SDS011;72736;50.236;18.876;2024-02-04T07:59:59;4.30;;;1.30;;
82948;SDS011;72736;50.236;18.876;2024-02-04T08:05:08;8.70;;;1.70;;
82948;SDS011;72736;50.236;18.876;2024-02-04T08:10:14;9.20;;;2.00;;
82948;SDS011;72736;50.236;18.876;2024-02-04T08:15:20;5.80;;;2.30;;
82948;SDS011;72736;50.236;18.876;2024-02-04T08:20:26;6.60;;;2.30;;
82948;SDS011;72736;50.236;18.876;2024-02-04T08:25:32;6.10;;;1.90;;
82948;SDS011;72736;50.236;18.876;2024-02-04T08:30:38;5.20;;;2.10;;
82948;SDS011;72736;50.236;18.876;2024-02-04T08:35:43;7.60;;;2.80;;
82948;SDS011;72736;50.236;18.876;2024-02-04T08:40:49;7.90;;;2.70;;
82948;SDS011;72736;50.236;18.876;2024-02-04T08:45:54;7.80;;;2.60;;
82948;SDS011;72736;50.236;18.876;2024-02-04T08:51:11;7.00;;;2.20;;
82948;SDS011;72736;50.236;18.876;2024-02-04T08:56:19;7.60;;;2.80;;
82948;SDS011;72736;50.236;18.876;2024-02-04T09:01:25;9.80;;;3.20;;
82948;SDS011;72736;50.236;18.876;2024-02-04T09:06:30;6.20;;;2.80;;
82948;SDS011;72736;50.236;18.876;2024-02-04T09:11:36;5.80;;;2.60;;
82948;SDS011;72736;50.236;18.876;2024-02-04T09:16:42;7.60;;;3.00;;
82948;SDS011;72736;50.236;18.876;2024-02-04T09:21:48;8.40;;;3.60;;
82948;SDS011;72736;50.236;18.876;2024-02-04T09:26:53;6.30;;;3.10;;
82948;SDS011;72736;50.236;18.876;2024-02-04T09:31:59;8.10;;;3.20;;
82948;SDS011;72736;50.236;18.876;2024-02-04T09:37:05;6.60;;;2.80;;
82948;SDS011;72736;50.236;18.876;2024-02-04T09:42:13;5.90;;;3.70;;
82948;SDS011;72736;50.236;18.876;2024-02-04T09:47:24;8.40;;;2.90;;
82948;SDS011;72736;50.236;18.876;2024-02-04T09:52:32;7.10;;;3.00;;
82948;SDS011;72736;50.236;18.876;2024-02-04T09:57:42;7.40;;;3.40;;
82948;SDS011;72736;50.236;18.876;2024-02-04T10:02:48;6.70;;;3.20;;
82948;SDS011;72736;50.236;18.876;2024-02-04T10:12:58;6.60;;;3.50;;
82948;SDS011;72736;50.236;18.876;2024-02-04T10:18:08;8.10;;;3.50;;
82948;SDS011;72736;50.236;18.876;2024-02-04T10:23:14;12.40;;;4.50;;
82948;SDS011;72736;50.236;18.876;2024-02-04T10:28:20;7.00;;;3.50;;
82948;SDS011;72736;50.236;18.876;2024-02-04T10:33:26;6.60;;;3.00;;
82948;SDS011;72736;50.236;18.876;2024-02-04T10:38:33;6.90;;;3.50;;
82948;SDS011;72736;50.236;18.876;2024-02-04T10:43:39;7.30;;;3.30;;
82948;SDS011;72736;50.236;18.876;2024-02-04T10:48:51;6.70;;;3.40;;
82948;SDS011;72736;50.236;18.876;2024-02-04T10:54:00;10.50;;;4.00;;
82948;SDS011;72736;50.236;18.876;2024-02-04T10:59:10;6.70;;;3.30;;
82948;SDS011;72736;50.236;18.876;2024-02-04T11:04:21;11.70;;;4.50;;
82948;SDS011;72736;50.236;18.876;2024-02-04T11:09:27;8.50;;;3.40;;
82948;SDS011;72736;50.236;18.876;2024-02-04T11:14:32;10.90;;;4.30;;
82948;SDS011;72736;50.236;18.876;2024-02-04T11:19:45;9.30;;;4.40;;
82948;SDS011;72736;50.236;18.876;2024-02-04T11:25:11;9.20;;;4.50;;
82948;SDS011;72736;50.236;18.876;2024-02-04T11:30:33;7.70;;;3.70;;
82948;SDS011;72736;50.236;18.876;2024-02-04T11:35:40;8.50;;;4.00;;
82948;SDS011;72736;50.236;18.876;2024-02-04T11:40:45;9.50;;;5.40;;
82948;SDS011;72736;50.236;18.876;2024-02-04T11:45:52;11.60;;;5.80;;
82948;SDS011;72736;50.236;18.876;2024-02-04T11:50:59;10.00;;;5.10;;
82948;SDS011;72736;50.236;18.876;2024-02-04T11:56:06;11.90;;;7.20;;
82948;SDS011;72736;50.236;18.876;2024-02-04T12:01:12;13.10;;;6.80;;
82948;SDS011;72736;50.236;18.876;2024-02-04T12:11:23;10.50;;;4.30;;
82948;SDS011;72736;50.236;18.876;2024-02-04T12:16:29;12.70;;;6.20;;
82948;SDS011;72736;50.236;18.876;2024-02-04T12:21:35;13.80;;;7.90;;
82948;SDS011;72736;50.236;18.876;2024-02-04T12:26:41;20.60;;;10.00;;
82948;SDS011;72736;50.236;18.876;2024-02-04T12:31:57;15.10;;;8.70;;
82948;SDS011;72736;50.236;18.876;2024-02-04T12:37:03;21.50;;;10.50;;
82948;SDS011;72736;50.236;18.876;2024-02-04T12:42:09;22.10;;;10.60;;
82948;SDS011;72736;50.236;18.876;2024-02-04T12:47:21;21.30;;;10.40;;
82948;SDS011;72736;50.236;18.876;2024-02-04T12:52:29;21.30;;;9.40;;
82948;SDS011;72736;50.236;18.876;2024-02-04T12:57:38;20.80;;;9.80;;
82948;SDS011;72736;50.236;18.876;2024-02-04T13:02:43;22.80;;;11.00;;
82948;SDS011;72736;50.236;18.876;2024-02-04T13:07:53;22.00;;;11.00;;
82948;SDS011;72736;50.236;18.876;2024-02-04T13:13:00;20.80;;;9.40;;
82948;SDS011;72736;50.236;18.876;2024-02-04T13:18:08;18.00;;;8.10;;
82948;SDS011;72736;50.236;18.876;2024-02-04T13:23:14;13.10;;;6.80;;
82948;SDS011;72736;50.236;18.876;2024-02-04T13:28:20;13.50;;;6.70;;
82948;SDS011;72736;50.236;18.876;2024-02-04T13:33:26;13.00;;;6.70;;
82948;SDS011;72736;50.236;18.876;2024-02-04T13:38:32;13.80;;;6.20;;
82948;SDS011;72736;50.236;18.876;2024-02-04T13:43:38;9.80;;;5.00;;
82948;SDS011;72736;50.236;18.876;2024-02-04T13:48:44;7.90;;;4.60;;
82948;SDS011;72736;50.236;18.876;2024-02-04T13:53:50;9.30;;;4.70;;
82948;SDS011;72736;50.236;18.876;2024-02-04T13:58:56;12.40;;;5.40;;
82948;SDS011;72736;50.236;18.876;2024-02-04T14:04:03;8.60;;;4.30;;
82948;SDS011;72736;50.236;18.876;2024-02-04T14:09:09;1.80;;;1.20;;
82948;SDS011;72736;50.236;18.876;2024-02-04T14:14:16;8.90;;;4.00;;
82948;SDS011;72736;50.236;18.876;2024-02-04T14:19:21;6.90;;;3.40;;
82948;SDS011;72736;50.236;18.876;2024-02-04T14:24:28;8.80;;;3.90;;
82948;SDS011;72736;50.236;18.876;2024-02-04T14:29:33;7.60;;;3.60;;
82948;SDS011;72736;50.236;18.876;2024-02-04T14:34:39;6.20;;;2.70;;
82948;SDS011;72736;50.236;18.876;2024-02-04T14:39:45;6.30;;;2.50;;
82948;SDS011;72736;50.236;18.876;2024-02-04T14:44:52;7.60;;;3.10;;
82948;SDS011;72736;50.236;18.876;2024-02-04T14:49:57;8.10;;;2.80;;
82948;SDS011;72736;50.236;18.876;2024-02-04T14:55:03;9.40;;;3.20;;
82948;SDS011;72736;50.236;18.876;2024-02-04T15:00:10;7.10;;;3.50;;
82948;SDS011;72736;50.236;18.876;2024-02-04T15:05:17;11.80;;;5.00;;
82948;SDS011;72736;50.236;18.876;2024-02-04T15:10:24;6.60;;;3.50;;
82948;SDS011;72736;50.236;18.876;2024-02-04T15:15:31;8.60;;;3.90;;
82948;SDS011;72736;50.236;18.876;2024-02-04T15:20:38;7.90;;;3.70;;
82948;SDS011;72736;50.236;18.876;2024-02-04T15:25:45;9.50;;;4.20;;
82948;SDS011;72736;50.236;18.876;2024-02-04T15:30:52;6.80;;;3.70;;
82948;SDS011;72736;50.236;18.876;2024-02-04T15:35:59;10.50;;;5.30;;
82948;SDS011;72736;50.236;18.876;2024-02-04T15:41:05;7.60;;;3.90;;
82948;SDS011;72736;50.236;18.876;2024-02-04T15:46:12;9.30;;;4.30;;
82948;SDS011;72736;50.236;18.876;2024-02-04T15:56:23;7.40;;;3.50;;
82948;SDS011;72736;50.236;18.876;2024-02-04T16:01:35;9.60;;;4.40;;
82948;SDS011;72736;50.236;18.876;2024-02-04T16:06:43;10.30;;;6.20;;
82948;SDS011;72736;50.236;18.876;2024-02-04T16:11:52;7.10;;;3.80;;
82948;SDS011;72736;50.236;18.876;2024-02-04T16:17:03;7.00;;;3.40;;
82948;SDS011;72736;50.236;18.876;2024-02-04T16:22:12;7.70;;;3.70;;
82948;SDS011;72736;50.236;18.876;2024-02-04T16:27:18;11.90;;;6.90;;
82948;SDS011;72736;50.236;18.876;2024-02-04T16:32:24;17.00;;;10.40;;
82948;SDS011;72736;50.236;18.876;2024-02-04T16:37:30;12.30;;;6.80;;
82948;SDS011;72736;50.236;18.876;2024-02-04T16:42:35;13.20;;;6.80;;
82948;SDS011;72736;50.236;18.876;2024-02-04T16:47:41;7.70;;;4.60;;
82948;SDS011;72736;50.236;18.876;2024-02-04T16:52:47;9.90;;;5.00;;
82948;SDS011;72736;50.236;18.876;2024-02-04T16:57:53;8.10;;;4.40;;
82948;SDS011;72736;50.236;18.876;2024-02-04T17:03:00;11.00;;;5.70;;
82948;SDS011;72736;50.236;18.876;2024-02-04T17:08:07;10.90;;;5.30;;
82948;SDS011;72736;50.236;18.876;2024-02-04T17:13:15;9.40;;;5.50;;
82948;SDS011;72736;50.236;18.876;2024-02-04T17:18:23;9.50;;;4.80;;
82948;SDS011;72736;50.236;18.876;2024-02-04T17:23:42;10.10;;;5.20;;
82948;SDS011;72736;50.236;18.876;2024-02-04T17:28:53;8.80;;;4.90;;
82948;SDS011;72736;50.236;18.876;2024-02-04T17:34:00;8.50;;;4.50;;
82948;SDS011;72736;50.236;18.876;2024-02-04T17:39:06;8.80;;;4.10;;
82948;SDS011;72736;50.236;18.876;2024-02-04T17:44:14;7.60;;;3.90;;
82948;SDS011;72736;50.236;18.876;2024-02-04T17:49:21;8.20;;;3.80;;
82948;SDS011;72736;50.236;18.876;2024-02-04T17:54:28;9.20;;;4.30;;
82948;SDS011;72736;50.236;18.876;2024-02-04T17:59:38;7.80;;;3.90;;
82948;SDS011;72736;50.236;18.876;2024-02-04T18:04:44;8.70;;;4.70;;
82948;SDS011;72736;50.236;18.876;2024-02-04T18:09:50;10.20;;;5.10;;
82948;SDS011;72736;50.236;18.876;2024-02-04T18:14:56;10.10;;;5.40;;
82948;SDS011;72736;50.236;18.876;2024-02-04T18:20:02;12.40;;;5.50;;
82948;SDS011;72736;50.236;18.876;2024-02-04T18:25:11;10.50;;;5.10;;
82948;SDS011;72736;50.236;18.876;2024-02-04T18:30:17;4.20;;;2.70;;
82948;SDS011;72736;50.236;18.876;2024-02-04T18:35:25;7.10;;;3.50;;
82948;SDS011;72736;50.236;18.876;2024-02-04T18:40:31;7.70;;;2.80;;
82948;SDS011;72736;50.236;18.876;2024-02-04T18:45:39;6.40;;;3.30;;
82948;SDS011;72736;50.236;18.876;2024-02-04T18:50:45;6.80;;;3.00;;
82948;SDS011;72736;50.236;18.876;2024-02-04T18:55:51;6.70;;;2.80;;
82948;SDS011;72736;50.236;18.876;2024-02-04T19:00:59;8.80;;;3.70;;
82948;SDS011;72736;50.236;18.876;2024-02-04T19:06:06;9.10;;;3.80;;
82948;SDS011;72736;50.236;18.876;2024-02-04T19:11:14;15.70;;;5.50;;
82948;SDS011;72736;50.236;18.876;2024-02-04T19:16:20;9.70;;;3.90;;
82948;SDS011;72736;50.236;18.876;2024-02-04T19:21:27;10.70;;;5.10;;
82948;SDS011;72736;50.236;18.876;2024-02-04T19:26:32;9.50;;;4.30;;
82948;SDS011;72736;50.236;18.876;2024-02-04T19:31:38;7.00;;;3.60;;
82948;SDS011;72736;50.236;18.876;2024-02-04T19:36:45;8.50;;;4.20;;
82948;SDS011;72736;50.236;18.876;2024-02-04T19:41:51;10.30;;;4.40;;
82948;SDS011;72736;50.236;18.876;2024-02-04T19:46:57;10.80;;;6.30;;
82948;SDS011;72736;50.236;18.876;2024-02-04T19:52:03;6.60;;;4.30;;
82948;SDS011;72736;50.236;18.876;2024-02-04T19:57:09;7.60;;;3.70;;
82948;SDS011;72736;50.236;18.876;2024-02-04T20:02:16;7.50;;;3.50;;
82948;SDS011;72736;50.236;18.876;2024-02-04T20:07:22;8.70;;;3.60;;
82948;SDS011;72736;50.236;18.876;2024-02-04T20:17:33;8.30;;;3.40;;
82948;SDS011;72736;50.236;18.876;2024-02-04T20:22:40;9.30;;;3.70;;
82948;SDS011;72736;50.236;18.876;2024-02-04T20:27:46;12.50;;;4.20;;
82948;SDS011;72736;50.236;18.876;2024-02-04T20:32:51;7.10;;;3.00;;
82948;SDS011;72736;50.236;18.876;2024-02-04T20:38:00;8.80;;;3.10;;
82948;SDS011;72736;50.236;18.876;2024-02-04T20:43:06;7.20;;;2.80;;
82948;SDS011;72736;50.236;18.876;2024-02-04T20:48:13;6.40;;;2.20;;
82948;SDS011;72736;50.236;18.876;2024-02-04T20:53:19;8.10;;;2.70;;
82948;SDS011;72736;50.236;18.876;2024-02-04T20:58:26;7.20;;;2.40;;
82948;SDS011;72736;50.236;18.876;2024-02-04T21:03:31;5.40;;;2.20;;
82948;SDS011;72736;50.236;18.876;2024-02-04T21:08:37;5.40;;;1.70;;
82948;SDS011;72736;50.236;18.876;2024-02-04T21:13:43;5.30;;;1.90;;
82948;SDS011;72736;50.236;18.876;2024-02-04T21:18:49;4.20;;;2.00;;
82948;SDS011;72736;50.236;18.876;2024-02-04T21:29:01;6.70;;;2.00;;
82948;SDS011;72736;50.236;18.876;2024-02-04T21:34:06;2.90;;;0.90;;
82948;SDS011;72736;50.236;18.876;2024-02-04T21:39:12;2.80;;;0.70;;
82948;SDS011;72736;50.236;18.876;2024-02-04T21:44:19;3.40;;;0.90;;
82948;SDS011;72736;50.236;18.876;2024-02-04T21:49:25;3.10;;;1.00;;
82948;SDS011;72736;50.236;18.876;2024-02-04T21:54:32;3.80;;;1.10;;
82948;SDS011;72736;50.236;18.876;2024-02-04T21:59:38;2.60;;;0.90;;
82948;SDS011;72736;50.236;18.876;2024-02-04T22:04:44;3.80;;;1.00;;
82948;SDS011;72736;50.236;18.876;2024-02-04T22:09:50;3.40;;;1.00;;
82948;SDS011;72736;50.236;18.876;2024-02-04T22:14:56;2.30;;;0.70;;
82948;SDS011;72736;50.236;18.876;2024-02-04T22:20:06;4.10;;;1.00;;
82948;SDS011;72736;50.236;18.876;2024-02-04T22:25:13;2.70;;;1.00;;
82948;SDS011;72736;50.236;18.876;2024-02-04T22:30:19;3.20;;;1.00;;
82948;SDS011;72736;50.236;18.876;2024-02-04T22:35:25;2.80;;;0.70;;
82948;SDS011;72736;50.236;18.876;2024-02-04T22:40:31;3.80;;;1.00;;
82948;SDS011;72736;50.236;18.876;2024-02-04T22:45:37;4.60;;;1.10;;
82948;SDS011;72736;50.236;18.876;2024-02-04T22:50:43;3.40;;;1.50;;
82948;SDS011;72736;50.236;18.876;2024-02-04T22:55:49;2.70;;;1.30;;
82948;SDS011;72736;50.236;18.876;2024-02-04T23:00:55;3.70;;;2.00;;
82948;SDS011;72736;50.236;18.876;2024-02-04T23:06:01;3.10;;;1.60;;
82948;SDS011;72736;50.236;18.876;2024-02-04T23:11:07;5.00;;;1.90;;
82948;SDS011;72736;50.236;18.876;2024-02-04T23:16:13;3.80;;;1.70;;
82948;SDS011;72736;50.236;18.876;2024-02-04T23:21:20;3.70;;;1.60;;
82948;SDS011;72736;50.236;18.876;2024-02-04T23:26:26;3.80;;;1.80;;
82948;SDS011;72736;50.236;18.876;2024-02-04T23:31:32;4.30;;;1.80;;
82948;SDS011;72736;50.236;18.876;2024-02-04T23:36:38;5.10;;;2.80;;
82948;SDS011;72736;50.236;18.876;2024-02-04T23:41:44;4.80;;;1.50;;
82948;SDS011;72736;50.236;18.876;2024-02-04T23:46:50;4.00;;;1.40;;
82948;SDS011;72736;50.236;18.876;2024-02-04T23:51:56;3.00;;;1.30;;
82948;SDS011;72736;50.236;18.876;2024-02-04T23:57:02;3.80;;;1.70;;
